sensor_id;sensor_type;location;lat;lon;timestamp;pressure;altitude;pressure_sealevel;temperature;humidity
77011;BME280;65945;53.148;17.956;2023-08-07T00:01:33;99356.44;;;13.42;93.40
77011;BME280;65945;53.148;17.956;2023-08-07T00:04:00;99351.91;;;13.42;93.29
77011;BME280;65945;53.148;17.956;2023-08-07T00:06:26;99352.73;;;13.43;93.21
77011;BME280;65945;53.148;17.956;2023-08-07T00:08:53;99350.84;;;13.42;93.22
77011;BME280;65945;53.148;17.956;2023-08-07T00:11:19;99349.23;;;13.42;93.06
77011;BME280;65945;53.148;17.956;2023-08-07T00:13:46;99354.21;;;13.42;93.03
77011;BME280;65945;53.148;17.956;2023-08-07T00:16:12;99359.59;;;13.41;93.02
77011;BME280;65945;53.148;17.956;2023-08-07T00:18:39;99360.90;;;13.41;93.03
77011;BME280;65945;53.148;17.956;2023-08-07T00:21:05;99364.89;;;13.41;92.90
77011;BME280;65945;53.148;17.956;2023-08-07T00:23:32;99360.82;;;13.41;92.86
77011;BME280;65945;53.148;17.956;2023-08-07T00:25:59;99366.13;;;13.40;92.70
77011;BME280;65945;53.148;17.956;2023-08-07T00:28:25;99370.19;;;13.40;92.75
77011;BME280;65945;53.148;17.956;2023-08-07T00:30:52;99373.57;;;13.40;92.63
77011;BME280;65945;53.148;17.956;2023-08-07T00:33:18;99375.48;;;13.41;92.56
77011;BME280;65945;53.148;17.956;2023-08-07T00:35:45;99371.34;;;13.41;92.62
77011;BME280;65945;53.148;17.956;2023-08-07T00:38:12;99364.04;;;13.41;92.70
77011;BME280;65945;53.148;17.956;2023-08-07T00:40:39;99357.84;;;13.40;92.71
77011;BME280;65945;53.148;17.956;2023-08-07T00:43:06;99353.63;;;13.39;92.77
77011;BME280;65945;53.148;17.956;2023-08-07T00:45:36;99350.48;;;13.37;92.62
77011;BME280;65945;53.148;17.956;2023-08-07T00:48:04;99346.11;;;13.37;92.59
77011;BME280;65945;53.148;17.956;2023-08-07T00:50:32;99342.60;;;13.36;92.71
77011;BME280;65945;53.148;17.956;2023-08-07T00:52:59;99344.39;;;13.35;92.77
77011;BME280;65945;53.148;17.956;2023-08-07T00:55:26;99346.54;;;13.35;92.83
77011;BME280;65945;53.148;17.956;2023-08-07T00:57:53;99341.94;;;13.35;92.87
77011;BME280;65945;53.148;17.956;2023-08-07T01:00:20;99337.94;;;13.34;92.92
77011;BME280;65945;53.148;17.956;2023-08-07T01:02:47;99336.73;;;13.33;92.94
77011;BME280;65945;53.148;17.956;2023-08-07T01:05:17;99336.82;;;13.32;92.97
77011;BME280;65945;53.148;17.956;2023-08-07T01:07:47;99339.67;;;13.31;93.12
77011;BME280;65945;53.148;17.956;2023-08-07T01:10:14;99347.13;;;13.30;93.12
77011;BME280;65945;53.148;17.956;2023-08-07T01:12:50;99337.70;;;13.29;93.21
77011;BME280;65945;53.148;17.956;2023-08-07T01:15:25;99330.79;;;13.29;93.20
77011;BME280;65945;53.148;17.956;2023-08-07T01:17:55;99329.34;;;13.28;93.13
77011;BME280;65945;53.148;17.956;2023-08-07T01:20:22;99326.89;;;13.28;93.15
77011;BME280;65945;53.148;17.956;2023-08-07T01:22:48;99333.34;;;13.27;93.27
77011;BME280;65945;53.148;17.956;2023-08-07T01:25:15;99338.55;;;13.27;93.11
77011;BME280;65945;53.148;17.956;2023-08-07T01:27:48;99340.95;;;13.26;93.06
77011;BME280;65945;53.148;17.956;2023-08-07T01:30:25;99343.17;;;13.26;93.03
77011;BME280;65945;53.148;17.956;2023-08-07T01:33:02;99346.56;;;13.26;93.05
77011;BME280;65945;53.148;17.956;2023-08-07T01:35:40;99348.46;;;13.26;93.15
77011;BME280;65945;53.148;17.956;2023-08-07T01:38:13;99349.31;;;13.26;93.01
77011;BME280;65945;53.148;17.956;2023-08-07T01:40:41;99350.14;;;13.27;92.98
77011;BME280;65945;53.148;17.956;2023-08-07T01:43:08;99352.43;;;13.29;92.89
77011;BME280;65945;53.148;17.956;2023-08-07T01:45:35;99349.98;;;13.30;92.74
77011;BME280;65945;53.148;17.956;2023-08-07T01:48:02;99347.19;;;13.32;92.75
77011;BME280;65945;53.148;17.956;2023-08-07T01:50:30;99348.09;;;13.33;92.69
77011;BME280;65945;53.148;17.956;2023-08-07T01:52:57;99342.34;;;13.32;92.64
77011;BME280;65945;53.148;17.956;2023-08-07T01:55:24;99339.13;;;13.32;92.57
77011;BME280;65945;53.148;17.956;2023-08-07T01:57:51;99338.44;;;13.32;92.57
77011;BME280;65945;53.148;17.956;2023-08-07T02:00:18;99333.69;;;13.31;92.47
77011;BME280;65945;53.148;17.956;2023-08-07T02:02:45;99336.14;;;13.31;92.49
77011;BME280;65945;53.148;17.956;2023-08-07T02:05:13;99335.98;;;13.30;92.50
77011;BME280;65945;53.148;17.956;2023-08-07T02:07:41;99332.77;;;13.29;92.50
77011;BME280;65945;53.148;17.956;2023-08-07T02:10:08;99327.25;;;13.29;92.53
77011;BME280;65945;53.148;17.956;2023-08-07T02:12:36;99327.20;;;13.28;92.51
77011;BME280;65945;53.148;17.956;2023-08-07T02:15:03;99326.13;;;13.28;92.56
77011;BME280;65945;53.148;17.956;2023-08-07T02:17:30;99334.41;;;13.28;92.44
77011;BME280;65945;53.148;17.956;2023-08-07T02:19:57;99332.95;;;13.28;92.49
77011;BME280;65945;53.148;17.956;2023-08-07T02:22:24;99333.73;;;13.28;92.51
77011;BME280;65945;53.148;17.956;2023-08-07T02:24:51;99331.04;;;13.28;92.54
77011;BME280;65945;53.148;17.956;2023-08-07T02:27:18;99331.35;;;13.27;92.42
77011;BME280;65945;53.148;17.956;2023-08-07T02:29:46;99331.04;;;13.26;92.51
77011;BME280;65945;53.148;17.956;2023-08-07T02:32:12;99326.53;;;13.25;92.40
77011;BME280;65945;53.148;17.956;2023-08-07T02:34:39;99325.86;;;13.23;92.46
77011;BME280;65945;53.148;17.956;2023-08-07T02:37:06;99324.95;;;13.22;92.49
77011;BME280;65945;53.148;17.956;2023-08-07T02:39:32;99323.66;;;13.21;92.55
77011;BME280;65945;53.148;17.956;2023-08-07T02:41:59;99325.29;;;13.19;92.29
77011;BME280;65945;53.148;17.956;2023-08-07T02:44:26;99319.56;;;13.17;92.43
77011;BME280;65945;53.148;17.956;2023-08-07T02:46:53;99314.42;;;13.17;92.49
77011;BME280;65945;53.148;17.956;2023-08-07T02:49:20;99310.98;;;13.15;92.16
77011;BME280;65945;53.148;17.956;2023-08-07T02:51:46;99314.23;;;13.14;92.16
77011;BME280;65945;53.148;17.956;2023-08-07T02:54:13;99322.27;;;13.13;92.06
77011;BME280;65945;53.148;17.956;2023-08-07T02:56:40;99321.60;;;13.12;92.13
77011;BME280;65945;53.148;17.956;2023-08-07T02:59:07;99324.30;;;13.11;92.23
77011;BME280;65945;53.148;17.956;2023-08-07T03:01:34;99327.30;;;13.10;92.30
77011;BME280;65945;53.148;17.956;2023-08-07T03:04:00;99325.52;;;13.09;92.29
77011;BME280;65945;53.148;17.956;2023-08-07T03:06:27;99326.07;;;13.10;92.44
77011;BME280;65945;53.148;17.956;2023-08-07T03:08:53;99330.84;;;13.09;92.25
77011;BME280;65945;53.148;17.956;2023-08-07T03:11:20;99340.73;;;13.09;92.42
77011;BME280;65945;53.148;17.956;2023-08-07T03:13:47;99341.65;;;13.08;92.50
77011;BME280;65945;53.148;17.956;2023-08-07T03:16:15;99344.11;;;13.08;92.34
77011;BME280;65945;53.148;17.956;2023-08-07T03:18:42;99348.58;;;13.07;92.45
77011;BME280;65945;53.148;17.956;2023-08-07T03:21:08;99352.33;;;13.07;92.50
77011;BME280;65945;53.148;17.956;2023-08-07T03:23:35;99353.94;;;13.07;92.40
77011;BME280;65945;53.148;17.956;2023-08-07T03:26:07;99358.86;;;13.06;92.52
77011;BME280;65945;53.148;17.956;2023-08-07T03:28:34;99369.30;;;13.07;92.46
77011;BME280;65945;53.148;17.956;2023-08-07T03:31:02;99371.89;;;13.07;92.58
77011;BME280;65945;53.148;17.956;2023-08-07T03:33:31;99374.05;;;13.06;92.23
77011;BME280;65945;53.148;17.956;2023-08-07T03:35:57;99370.31;;;13.04;92.14
77011;BME280;65945;53.148;17.956;2023-08-07T03:38:24;99377.06;;;13.04;92.27
77011;BME280;65945;53.148;17.956;2023-08-07T03:40:52;99377.98;;;13.04;92.32
77011;BME280;65945;53.148;17.956;2023-08-07T03:43:19;99379.66;;;13.04;92.18
77011;BME280;65945;53.148;17.956;2023-08-07T03:45:47;99378.83;;;13.04;92.13
77011;BME280;65945;53.148;17.956;2023-08-07T03:48:14;99381.29;;;13.03;91.88
77011;BME280;65945;53.148;17.956;2023-08-07T03:50:41;99379.67;;;13.02;92.03
77011;BME280;65945;53.148;17.956;2023-08-07T03:53:07;99381.05;;;13.02;92.09
77011;BME280;65945;53.148;17.956;2023-08-07T03:55:37;99379.52;;;13.02;92.07
77011;BME280;65945;53.148;17.956;2023-08-07T03:58:04;99381.28;;;13.02;92.00
77011;BME280;65945;53.148;17.956;2023-08-07T04:00:31;99376.06;;;13.01;92.00
77011;BME280;65945;53.148;17.956;2023-08-07T04:02:58;99375.23;;;13.02;91.95
77011;BME280;65945;53.148;17.956;2023-08-07T04:05:24;99375.30;;;13.02;92.01
77011;BME280;65945;53.148;17.956;2023-08-07T04:07:51;99377.14;;;13.02;92.20
77011;BME280;65945;53.148;17.956;2023-08-07T04:10:17;99377.36;;;13.01;92.00
77011;BME280;65945;53.148;17.956;2023-08-07T04:12:45;99385.34;;;13.01;92.11
77011;BME280;65945;53.148;17.956;2023-08-07T04:15:11;99383.28;;;13.00;92.13
77011;BME280;65945;53.148;17.956;2023-08-07T04:17:38;99389.33;;;13.00;92.13
77011;BME280;65945;53.148;17.956;2023-08-07T04:20:05;99390.25;;;13.01;92.32
77011;BME280;65945;53.148;17.956;2023-08-07T04:22:32;99392.48;;;13.01;92.37
77011;BME280;65945;53.148;17.956;2023-08-07T04:24:59;99398.77;;;13.01;92.27
77011;BME280;65945;53.148;17.956;2023-08-07T04:27:26;99394.92;;;13.00;92.26
77011;BME280;65945;53.148;17.956;2023-08-07T04:29:53;99392.33;;;13.00;92.27
77011;BME280;65945;53.148;17.956;2023-08-07T04:32:20;99399.77;;;12.99;92.33
77011;BME280;65945;53.148;17.956;2023-08-07T04:34:47;99400.31;;;13.00;92.34
77011;BME280;65945;53.148;17.956;2023-08-07T04:37:13;99393.17;;;12.99;92.36
77011;BME280;65945;53.148;17.956;2023-08-07T04:39:40;99391.42;;;12.98;92.26
77011;BME280;65945;53.148;17.956;2023-08-07T04:42:06;99390.20;;;12.98;92.39
77011;BME280;65945;53.148;17.956;2023-08-07T04:44:33;99394.95;;;12.98;92.46
77011;BME280;65945;53.148;17.956;2023-08-07T04:46:59;99401.94;;;12.97;92.31
77011;BME280;65945;53.148;17.956;2023-08-07T04:49:26;99409.23;;;12.96;92.25
77011;BME280;65945;53.148;17.956;2023-08-07T04:51:53;99410.76;;;12.97;92.41
77011;BME280;65945;53.148;17.956;2023-08-07T04:54:20;99416.51;;;12.97;92.49
77011;BME280;65945;53.148;17.956;2023-08-07T04:56:47;99417.88;;;12.98;92.19
77011;BME280;65945;53.148;17.956;2023-08-07T04:59:13;99422.63;;;12.98;92.33
77011;BME280;65945;53.148;17.956;2023-08-07T05:01:40;99427.14;;;12.98;92.43
77011;BME280;65945;53.148;17.956;2023-08-07T05:04:07;99424.48;;;12.98;92.34
77011;BME280;65945;53.148;17.956;2023-08-07T05:06:33;99428.02;;;12.96;92.28
77011;BME280;65945;53.148;17.956;2023-08-07T05:09:00;99428.95;;;12.96;92.29
77011;BME280;65945;53.148;17.956;2023-08-07T05:11:27;99432.33;;;12.96;92.46
77011;BME280;65945;53.148;17.956;2023-08-07T05:13:53;99440.23;;;12.95;92.32
77011;BME280;65945;53.148;17.956;2023-08-07T05:16:20;99447.27;;;12.96;92.50
77011;BME280;65945;53.148;17.956;2023-08-07T05:18:47;99447.65;;;12.97;92.32
77011;BME280;65945;53.148;17.956;2023-08-07T05:21:13;99447.96;;;12.96;92.32
77011;BME280;65945;53.148;17.956;2023-08-07T05:23:40;99445.73;;;12.96;92.54
77011;BME280;65945;53.148;17.956;2023-08-07T05:26:06;99449.96;;;12.95;92.35
77011;BME280;65945;53.148;17.956;2023-08-07T05:28:33;99452.27;;;12.95;92.42
77011;BME280;65945;53.148;17.956;2023-08-07T05:31:00;99454.95;;;12.94;92.67
77011;BME280;65945;53.148;17.956;2023-08-07T05:33:26;99458.02;;;12.94;92.56
77011;BME280;65945;53.148;17.956;2023-08-07T05:35:53;99458.96;;;12.92;92.53
77011;BME280;65945;53.148;17.956;2023-08-07T05:38:21;99464.39;;;12.93;92.79
77011;BME280;65945;53.148;17.956;2023-08-07T05:40:48;99465.75;;;12.95;92.72
77011;BME280;65945;53.148;17.956;2023-08-07T05:43:16;99465.91;;;12.96;92.64
77011;BME280;65945;53.148;17.956;2023-08-07T05:45:43;99470.33;;;12.99;92.76
77011;BME280;65945;53.148;17.956;2023-08-07T05:48:12;99465.88;;;13.01;92.76
77011;BME280;65945;53.148;17.956;2023-08-07T05:50:39;99465.81;;;13.02;92.45
77011;BME280;65945;53.148;17.956;2023-08-07T05:53:05;99471.55;;;13.04;92.23
77011;BME280;65945;53.148;17.956;2023-08-07T05:55:32;99473.01;;;13.04;92.21
77011;BME280;65945;53.148;17.956;2023-08-07T05:57:59;99476.75;;;13.06;92.28
77011;BME280;65945;53.148;17.956;2023-08-07T06:00:26;99479.11;;;13.10;92.40
77011;BME280;65945;53.148;17.956;2023-08-07T06:02:54;99481.84;;;13.14;92.29
77011;BME280;65945;53.148;17.956;2023-08-07T06:05:21;99479.84;;;13.15;91.94
77011;BME280;65945;53.148;17.956;2023-08-07T06:07:47;99482.13;;;13.17;91.63
77011;BME280;65945;53.148;17.956;2023-08-07T06:10:14;99486.02;;;13.18;91.75
77011;BME280;65945;53.148;17.956;2023-08-07T06:12:41;99489.61;;;13.21;91.84
77011;BME280;65945;53.148;17.956;2023-08-07T06:15:08;99489.05;;;13.23;91.64
77011;BME280;65945;53.148;17.956;2023-08-07T06:17:35;99492.42;;;13.26;91.41
77011;BME280;65945;53.148;17.956;2023-08-07T06:20:02;99496.25;;;13.26;91.37
77011;BME280;65945;53.148;17.956;2023-08-07T06:22:31;99497.08;;;13.28;91.40
77011;BME280;65945;53.148;17.956;2023-08-07T06:24:59;99495.14;;;13.30;91.36
77011;BME280;65945;53.148;17.956;2023-08-07T06:27:25;99500.48;;;13.33;91.36
77011;BME280;65945;53.148;17.956;2023-08-07T06:29:52;99498.63;;;13.35;91.02
77011;BME280;65945;53.148;17.956;2023-08-07T06:32:18;99501.38;;;13.36;90.75
77011;BME280;65945;53.148;17.956;2023-08-07T06:34:45;99500.30;;;13.37;90.65
77011;BME280;65945;53.148;17.956;2023-08-07T06:37:13;99500.69;;;13.38;90.58
77011;BME280;65945;53.148;17.956;2023-08-07T06:39:39;99501.58;;;13.41;90.36
77011;BME280;65945;53.148;17.956;2023-08-07T06:42:06;99497.93;;;13.45;90.01
77011;BME280;65945;53.148;17.956;2023-08-07T06:44:34;99505.10;;;13.52;89.81
77011;BME280;65945;53.148;17.956;2023-08-07T06:47:00;99508.77;;;13.62;89.57
77011;BME280;65945;53.148;17.956;2023-08-07T06:49:27;99511.75;;;13.71;89.46
77011;BME280;65945;53.148;17.956;2023-08-07T06:51:53;99513.51;;;13.80;89.26
77011;BME280;65945;53.148;17.956;2023-08-07T06:54:20;99517.30;;;13.85;88.40
77011;BME280;65945;53.148;17.956;2023-08-07T06:56:47;99519.48;;;13.90;88.85
77011;BME280;65945;53.148;17.956;2023-08-07T06:59:14;99521.07;;;13.92;88.03
77011;BME280;65945;53.148;17.956;2023-08-07T07:01:40;99523.66;;;13.94;87.98
77011;BME280;65945;53.148;17.956;2023-08-07T07:04:07;99528.52;;;13.93;86.53
77011;BME280;65945;53.148;17.956;2023-08-07T07:06:34;99529.91;;;13.90;87.60
77011;BME280;65945;53.148;17.956;2023-08-07T07:09:00;99523.70;;;13.89;87.48
77011;BME280;65945;53.148;17.956;2023-08-07T07:11:27;99533.56;;;13.87;87.75
77011;BME280;65945;53.148;17.956;2023-08-07T07:13:53;99535.56;;;13.87;88.28
77011;BME280;65945;53.148;17.956;2023-08-07T07:16:21;99541.33;;;13.86;88.39
77011;BME280;65945;53.148;17.956;2023-08-07T07:18:50;99546.34;;;13.85;88.38
77011;BME280;65945;53.148;17.956;2023-08-07T07:21:18;99549.46;;;13.87;88.98
77011;BME280;65945;53.148;17.956;2023-08-07T07:23:45;99552.20;;;13.90;88.88
77011;BME280;65945;53.148;17.956;2023-08-07T07:26:11;99553.34;;;13.91;88.43
77011;BME280;65945;53.148;17.956;2023-08-07T07:28:38;99557.34;;;13.91;88.72
77011;BME280;65945;53.148;17.956;2023-08-07T07:31:04;99557.46;;;13.93;88.58
77011;BME280;65945;53.148;17.956;2023-08-07T07:33:31;99556.92;;;13.94;88.50
77011;BME280;65945;53.148;17.956;2023-08-07T07:35:58;99556.23;;;13.95;88.26
77011;BME280;65945;53.148;17.956;2023-08-07T07:38:25;99558.66;;;13.97;87.84
77011;BME280;65945;53.148;17.956;2023-08-07T07:40:53;99562.08;;;14.01;87.60
77011;BME280;65945;53.148;17.956;2023-08-07T07:43:23;99564.59;;;14.11;87.37
77011;BME280;65945;53.148;17.956;2023-08-07T07:45:50;99563.34;;;14.22;87.39
77011;BME280;65945;53.148;17.956;2023-08-07T07:48:16;99564.15;;;14.35;86.63
77011;BME280;65945;53.148;17.956;2023-08-07T07:50:43;99562.21;;;14.43;84.64
77011;BME280;65945;53.148;17.956;2023-08-07T07:53:10;99568.71;;;14.52;84.12
77011;BME280;65945;53.148;17.956;2023-08-07T07:55:36;99584.83;;;14.62;84.14
77011;BME280;65945;53.148;17.956;2023-08-07T07:58:04;99579.48;;;14.71;82.08
77011;BME280;65945;53.148;17.956;2023-08-07T08:00:33;99585.25;;;14.83;82.59
77011;BME280;65945;53.148;17.956;2023-08-07T08:03:00;99581.16;;;14.96;82.03
77011;BME280;65945;53.148;17.956;2023-08-07T08:05:27;99585.31;;;15.07;81.21
77011;BME280;65945;53.148;17.956;2023-08-07T08:07:53;99586.66;;;15.17;80.39
77011;BME280;65945;53.148;17.956;2023-08-07T08:10:20;99581.14;;;15.26;80.36
77011;BME280;65945;53.148;17.956;2023-08-07T08:12:47;99585.67;;;15.37;79.99
77011;BME280;65945;53.148;17.956;2023-08-07T08:15:13;99584.48;;;15.47;77.58
77011;BME280;65945;53.148;17.956;2023-08-07T08:17:40;99587.63;;;15.52;76.80
77011;BME280;65945;53.148;17.956;2023-08-07T08:20:07;99581.48;;;15.61;78.25
77011;BME280;65945;53.148;17.956;2023-08-07T08:22:34;99576.99;;;15.76;77.89
77011;BME280;65945;53.148;17.956;2023-08-07T08:25:01;99574.55;;;15.93;76.98
77011;BME280;65945;53.148;17.956;2023-08-07T08:27:28;99576.77;;;16.03;74.69
77011;BME280;65945;53.148;17.956;2023-08-07T08:29:55;99579.23;;;16.12;74.77
77011;BME280;65945;53.148;17.956;2023-08-07T08:32:21;99582.27;;;16.19;74.23
77011;BME280;65945;53.148;17.956;2023-08-07T08:34:48;99590.19;;;16.24;74.30
77011;BME280;65945;53.148;17.956;2023-08-07T08:37:17;99581.66;;;16.30;72.90
77011;BME280;65945;53.148;17.956;2023-08-07T08:39:43;99589.23;;;16.38;73.25
77011;BME280;65945;53.148;17.956;2023-08-07T08:42:11;99588.67;;;16.48;72.35
77011;BME280;65945;53.148;17.956;2023-08-07T08:44:39;99596.57;;;16.59;72.64
77011;BME280;65945;53.148;17.956;2023-08-07T08:47:08;99594.80;;;16.73;72.98
77011;BME280;65945;53.148;17.956;2023-08-07T08:49:39;99587.69;;;16.90;70.70
77011;BME280;65945;53.148;17.956;2023-08-07T08:52:09;99592.67;;;17.02;68.69
77011;BME280;65945;53.148;17.956;2023-08-07T08:54:36;99597.57;;;17.15;68.89
77011;BME280;65945;53.148;17.956;2023-08-07T08:57:03;99600.87;;;17.29;66.97
77011;BME280;65945;53.148;17.956;2023-08-07T08:59:31;99589.14;;;17.39;66.56
77011;BME280;65945;53.148;17.956;2023-08-07T09:01:58;99597.61;;;17.48;65.74
77011;BME280;65945;53.148;17.956;2023-08-07T09:04:24;99591.17;;;17.56;65.88
77011;BME280;65945;53.148;17.956;2023-08-07T09:06:51;99600.84;;;17.72;67.02
77011;BME280;65945;53.148;17.956;2023-08-07T09:09:20;99607.11;;;17.81;65.17
77011;BME280;65945;53.148;17.956;2023-08-07T09:11:48;99593.96;;;17.78;65.00
77011;BME280;65945;53.148;17.956;2023-08-07T09:14:17;99606.65;;;17.84;66.85
77011;BME280;65945;53.148;17.956;2023-08-07T09:16:48;99605.73;;;17.99;64.91
77011;BME280;65945;53.148;17.956;2023-08-07T09:19:15;99601.72;;;18.08;64.97
77011;BME280;65945;53.148;17.956;2023-08-07T09:21:41;99611.46;;;18.05;64.58
77011;BME280;65945;53.148;17.956;2023-08-07T09:24:08;99610.35;;;17.91;63.34
77011;BME280;65945;53.148;17.956;2023-08-07T09:26:41;99611.71;;;17.76;63.28
77011;BME280;65945;53.148;17.956;2023-08-07T09:29:12;99615.21;;;17.78;64.33
77011;BME280;65945;53.148;17.956;2023-08-07T09:31:43;99618.31;;;17.81;63.86
77011;BME280;65945;53.148;17.956;2023-08-07T09:34:11;99611.25;;;17.76;63.42
77011;BME280;65945;53.148;17.956;2023-08-07T09:36:40;99624.81;;;17.71;64.65
77011;BME280;65945;53.148;17.956;2023-08-07T09:39:08;99620.42;;;17.64;65.08
77011;BME280;65945;53.148;17.956;2023-08-07T09:41:35;99616.05;;;17.67;65.62
77011;BME280;65945;53.148;17.956;2023-08-07T09:44:06;99615.83;;;17.84;65.83
77011;BME280;65945;53.148;17.956;2023-08-07T09:46:42;99613.90;;;18.00;64.14
77011;BME280;65945;53.148;17.956;2023-08-07T09:49:09;99612.15;;;18.17;64.73
77011;BME280;65945;53.148;17.956;2023-08-07T09:51:47;99613.05;;;18.33;64.46
77011;BME280;65945;53.148;17.956;2023-08-07T09:54:14;99620.86;;;18.35;63.16
77011;BME280;65945;53.148;17.956;2023-08-07T09:56:41;99612.03;;;18.36;62.54
77011;BME280;65945;53.148;17.956;2023-08-07T09:59:08;99619.21;;;18.31;61.37
77011;BME280;65945;53.148;17.956;2023-08-07T10:01:38;99622.73;;;18.24;61.97
77011;BME280;65945;53.148;17.956;2023-08-07T10:04:06;99619.46;;;18.12;62.43
77011;BME280;65945;53.148;17.956;2023-08-07T10:06:34;99622.56;;;17.94;63.09
77011;BME280;65945;53.148;17.956;2023-08-07T10:09:01;99624.04;;;17.78;64.18
77011;BME280;65945;53.148;17.956;2023-08-07T10:11:31;99625.77;;;17.60;64.38
77011;BME280;65945;53.148;17.956;2023-08-07T10:13:58;99624.93;;;17.49;64.78
77011;BME280;65945;53.148;17.956;2023-08-07T10:16:26;99621.35;;;17.36;65.01
77011;BME280;65945;53.148;17.956;2023-08-07T10:18:55;99628.81;;;17.27;65.49
77011;BME280;65945;53.148;17.956;2023-08-07T10:21:23;99629.64;;;17.24;66.88
77011;BME280;65945;53.148;17.956;2023-08-07T10:23:53;99627.16;;;17.31;67.15
77011;BME280;65945;53.148;17.956;2023-08-07T10:26:23;99629.44;;;17.40;67.56
77011;BME280;65945;53.148;17.956;2023-08-07T10:28:52;99629.61;;;17.47;66.95
77011;BME280;65945;53.148;17.956;2023-08-07T10:31:22;99631.88;;;17.53;66.46
77011;BME280;65945;53.148;17.956;2023-08-07T10:33:49;99640.83;;;17.57;66.86
77011;BME280;65945;53.148;17.956;2023-08-07T10:36:18;99642.61;;;17.57;65.76
77011;BME280;65945;53.148;17.956;2023-08-07T10:38:49;99649.52;;;17.52;65.57
77011;BME280;65945;53.148;17.956;2023-08-07T10:41:17;99653.27;;;17.42;65.20
77011;BME280;65945;53.148;17.956;2023-08-07T10:43:45;99668.14;;;17.33;66.44
77011;BME280;65945;53.148;17.956;2023-08-07T10:46:16;99683.45;;;17.25;66.79
77011;BME280;65945;53.148;17.956;2023-08-07T10:48:47;99701.00;;;17.17;67.67
77011;BME280;65945;53.148;17.956;2023-08-07T10:51:17;99706.05;;;17.00;69.15
77011;BME280;65945;53.148;17.956;2023-08-07T10:53:46;99714.38;;;16.80;71.06
77011;BME280;65945;53.148;17.956;2023-08-07T10:56:18;99716.52;;;16.64;71.70
77011;BME280;65945;53.148;17.956;2023-08-07T10:58:50;99712.27;;;16.56;72.37
77011;BME280;65945;53.148;17.956;2023-08-07T11:03:54;99719.80;;;16.53;72.71
77011;BME280;65945;53.148;17.956;2023-08-07T11:06:28;99717.55;;;16.58;72.62
77011;BME280;65945;53.148;17.956;2023-08-07T11:09:05;99722.87;;;16.67;72.75
77011;BME280;65945;53.148;17.956;2023-08-07T11:11:39;99724.29;;;16.74;71.95
77011;BME280;65945;53.148;17.956;2023-08-07T11:14:11;99728.54;;;16.82;71.89
77011;BME280;65945;53.148;17.956;2023-08-07T11:16:38;99727.69;;;16.94;72.21
77011;BME280;65945;53.148;17.956;2023-08-07T11:19:06;99731.67;;;17.07;71.75
77011;BME280;65945;53.148;17.956;2023-08-07T11:21:33;99732.52;;;17.19;72.67
77011;BME280;65945;53.148;17.956;2023-08-07T11:24:08;99733.96;;;17.32;72.26
77011;BME280;65945;53.148;17.956;2023-08-07T11:26:34;99733.05;;;17.43;72.82
77011;BME280;65945;53.148;17.956;2023-08-07T11:29:01;99735.91;;;17.51;72.25
77011;BME280;65945;53.148;17.956;2023-08-07T11:31:28;99730.94;;;17.67;72.42
77011;BME280;65945;53.148;17.956;2023-08-07T11:33:56;99729.80;;;17.83;72.92
77011;BME280;65945;53.148;17.956;2023-08-07T11:36:24;99737.45;;;17.97;72.32
77011;BME280;65945;53.148;17.956;2023-08-07T11:38:51;99734.20;;;18.04;70.81
77011;BME280;65945;53.148;17.956;2023-08-07T11:41:18;99741.51;;;17.99;70.59
77011;BME280;65945;53.148;17.956;2023-08-07T11:43:46;99735.98;;;17.87;69.68
77011;BME280;65945;53.148;17.956;2023-08-07T11:46:14;99738.14;;;17.74;68.86
77011;BME280;65945;53.148;17.956;2023-08-07T11:48:43;99746.52;;;17.65;69.19
77011;BME280;65945;53.148;17.956;2023-08-07T11:51:11;99745.80;;;17.62;68.57
77011;BME280;65945;53.148;17.956;2023-08-07T11:53:41;99747.88;;;17.66;67.80
77011;BME280;65945;53.148;17.956;2023-08-07T11:56:12;99751.87;;;17.71;66.18
77011;BME280;65945;53.148;17.956;2023-08-07T11:58:45;99749.77;;;17.75;64.90
77011;BME280;65945;53.148;17.956;2023-08-07T12:01:17;99760.11;;;17.80;65.50
77011;BME280;65945;53.148;17.956;2023-08-07T12:03:56;99758.05;;;17.85;65.02
77011;BME280;65945;53.148;17.956;2023-08-07T12:06:24;99757.55;;;17.86;64.42
77011;BME280;65945;53.148;17.956;2023-08-07T12:08:54;99761.26;;;17.91;64.63
77011;BME280;65945;53.148;17.956;2023-08-07T12:11:22;99749.21;;;17.93;63.36
77011;BME280;65945;53.148;17.956;2023-08-07T12:13:49;99747.59;;;17.96;63.12
77011;BME280;65945;53.148;17.956;2023-08-07T12:16:16;99750.48;;;18.02;62.85
77011;BME280;65945;53.148;17.956;2023-08-07T12:18:45;99754.52;;;18.08;62.63
77011;BME280;65945;53.148;17.956;2023-08-07T12:21:22;99753.99;;;18.20;63.68
77011;BME280;65945;53.148;17.956;2023-08-07T12:23:51;99751.00;;;18.36;62.04
77011;BME280;65945;53.148;17.956;2023-08-07T12:26:18;99747.98;;;18.49;60.86
77011;BME280;65945;53.148;17.956;2023-08-07T12:28:45;99747.66;;;18.58;59.80
77011;BME280;65945;53.148;17.956;2023-08-07T12:31:12;99739.39;;;18.77;59.18
77011;BME280;65945;53.148;17.956;2023-08-07T12:33:41;99728.76;;;18.95;57.95
77011;BME280;65945;53.148;17.956;2023-08-07T12:36:07;99737.20;;;19.12;57.56
77011;BME280;65945;53.148;17.956;2023-08-07T12:38:34;99738.92;;;19.22;57.48
77011;BME280;65945;53.148;17.956;2023-08-07T12:41:02;99731.27;;;19.30;57.16
77011;BME280;65945;53.148;17.956;2023-08-07T12:43:30;99736.26;;;19.32;56.52
77011;BME280;65945;53.148;17.956;2023-08-07T12:45:56;99744.90;;;19.27;56.27
77011;BME280;65945;53.148;17.956;2023-08-07T12:48:24;99729.68;;;19.14;55.38
77011;BME280;65945;53.148;17.956;2023-08-07T12:50:55;99740.70;;;19.05;56.33
77011;BME280;65945;53.148;17.956;2023-08-07T12:53:22;99740.36;;;18.95;56.32
77011;BME280;65945;53.148;17.956;2023-08-07T12:55:49;99734.70;;;18.90;56.15